Appleton, Colorado
Current Conditions -  °F | °C
As of 8:53 PM on Wednesday 22 Oct 2014 (Local Time) from KGJT Reporting Station
Clear Clear  
Wind Chill: 10°   Ceiling: Unl
Heat Index: 10°   Visibility: 10mi
Dew Point:   Wind: 3mph
Humidity: 59%   Direction: 80°E
Pressure: 30.15"   Gusts: NA
Location:  39.1857°N, 108.6°W
Report Text: KGJT 230253Z 08003KT 10SM CLR 10/02 A3015 RMK AO2 SLP188 T01000022 53012
Loading
Personal Weather Stations






























Interactive Weather Map New forecast layout! Learn more

10-Day Weather Forecast

Advertisements
Track Severe Weather on mobile